»·PEaware :: SWA500 KSFO-KLAX

SWA500 :: KSFO-KLAX

FLIGHT INFORMATION

Flight Status: Arrived
Operator:
Southwest Airlines
More flights by this operator :: More flights under this callsign
Pilot: Steve F. (26981)
Aircraft: BOEING 737-900
(B739)
More flights by this aircraft type
Origin: KSFO San Francisco Intl
United States
Destination: KLAX Los Angeles Intl
United States
More flights between these airports :: More routes between these airports
Route: SSTIK5 SUSEY EBAYE BURGL IRNMN2
File this flight plan on PilotEdge
Remarks:
Altitude:
(Current/Filed)
33,000ft
Speed:
(Current/Filed)
430kts
Departed: 15-Sep-23 07:19 AM
Arrived: 15-Sep-23 08:16 AM
Distance/Time
Traveled:
293nm/0:57
Distance/Time
To Go:
Arrived

Flight Plot

Page will automatically refresh every two minutes.

Flight plan parsing failed; only flown route is shown


Map Options




Map Legend


Flown Route
Filed Route
Departure Airport
Arrival Airport
Navaid (VOR, NDB)
Fix

Horizontal Profiles

Position Reports

Time Latitude Longitude Heading Altitude Ground
Speed
15-Sep-23 07:01 37.611285 -122.390334 42 21ft 0kts
15-Sep-23 07:02 37.611285 -122.390334 42 21ft 0kts
15-Sep-23 07:03 37.611285 -122.390334 42 21ft 0kts
15-Sep-23 07:04 37.611285 -122.390334 42 21ft 0kts
15-Sep-23 07:05 37.611285 -122.390334 42 21ft 0kts
15-Sep-23 07:06 37.611285 -122.390334 42 21ft 0kts
15-Sep-23 07:07 37.611285 -122.390334 42 21ft 0kts
15-Sep-23 07:08 37.611285 -122.390334 42 21ft 0kts
15-Sep-23 07:09 37.611285 -122.390334 42 21ft 0kts
15-Sep-23 07:10 37.610985 -122.390677 43 21ft 2kts
15-Sep-23 07:11 37.610890 -122.390958 100 21ft 0kts
15-Sep-23 07:12 37.610890 -122.390958 100 21ft 0kts
15-Sep-23 07:13 37.610890 -122.390957 100 21ft 0kts
15-Sep-23 07:14 37.610371 -122.388990 39 21ft 12kts
15-Sep-23 07:15 37.610216 -122.385754 118 21ft 10kts
15-Sep-23 07:16 37.608731 -122.383757 207 21ft 6kts
15-Sep-23 07:17 37.608484 -122.383781 123 21ft 0kts
15-Sep-23 07:18 37.612600 -122.379799 27 21ft 104kts
15-Sep-23 07:19 37.661437 -122.359428 0 2187ft 232kts
15-Sep-23 07:20 37.712895 -122.399837 273 5574ft 246kts
15-Sep-23 07:21 37.664969 -122.453921 184 8458ft 272kts
15-Sep-23 07:22 37.585767 -122.462886 183 10929ft 303kts
15-Sep-23 07:23 37.496714 -122.467603 162 13188ft 337kts
15-Sep-23 07:24 37.423962 -122.388452 131 15458ft 364kts
15-Sep-23 07:25 37.353923 -122.291072 132 17714ft 385kts
15-Sep-23 07:26 37.279823 -122.190561 133 19965ft 398kts
15-Sep-23 07:27 37.202240 -122.085132 133 21249ft 431kts
15-Sep-23 07:28 37.119962 -121.974167 133 22722ft 447kts
15-Sep-23 07:29 37.033930 -121.858762 133 24126ft 458kts
15-Sep-23 07:30 36.946243 -121.741593 134 25425ft 466kts
15-Sep-23 07:31 36.856818 -121.622534 134 26547ft 474kts
15-Sep-23 07:32 36.765992 -121.502058 134 27523ft 481kts
15-Sep-23 07:33 36.675064 -121.381881 134 28618ft 481kts
15-Sep-23 07:34 36.583566 -121.260942 135 29785ft 480kts
15-Sep-23 07:35 36.491656 -121.140663 135 30949ft 477kts
15-Sep-23 07:36 36.401500 -121.020712 132 31974ft 477kts
15-Sep-23 07:37 36.315220 -120.895524 132 32914ft 475kts
15-Sep-23 07:38 36.228474 -120.771543 132 33051ft 475kts
15-Sep-23 07:39 36.146345 -120.653771 132 33048ft 477kts
15-Sep-23 07:40 36.059516 -120.529859 132 33050ft 478kts
15-Sep-23 07:41 35.971901 -120.405829 133 33041ft 479kts
15-Sep-23 07:42 35.883125 -120.283225 138 33041ft 478kts
15-Sep-23 07:43 35.775314 -120.189648 151 33041ft 474kts
15-Sep-23 07:44 35.662856 -120.105364 150 33049ft 474kts
15-Sep-23 07:45 35.550393 -120.020507 150 33051ft 474kts
15-Sep-23 07:46 35.438039 -119.935858 151 33044ft 476kts
15-Sep-23 07:47 35.329552 -119.854673 151 33055ft 476kts
15-Sep-23 07:48 35.220673 -119.761675 144 32169ft 480kts
15-Sep-23 07:49 35.117212 -119.663721 144 30068ft 461kts
15-Sep-23 07:50 35.016751 -119.570338 145 28102ft 445kts
15-Sep-23 07:51 34.919427 -119.480208 144 26303ft 434kts
15-Sep-23 07:52 34.823485 -119.394075 145 24500ft 422kts
15-Sep-23 07:53 34.734429 -119.314676 146 22739ft 411kts
15-Sep-23 07:54 34.642449 -119.234525 146 20561ft 403kts
15-Sep-23 07:55 34.555411 -119.159491 145 19064ft 382kts
15-Sep-23 07:56 34.469667 -119.083441 144 16971ft 380kts
15-Sep-23 07:57 34.385685 -119.010155 144 15066ft 363kts
15-Sep-23 07:58 34.307399 -118.941057 142 13679ft 333kts
15-Sep-23 07:59 34.237761 -118.877544 141 12893ft 299kts
15-Sep-23 08:00 34.172676 -118.817809 141 12192ft 293kts
15-Sep-23 08:01 34.145281 -118.790639 136 12022ft 290kts
15-Sep-23 08:06 34.025337 -118.368885 79 12024ft 244kts
15-Sep-23 08:07 34.034497 -118.289974 83 10490ft 238kts
15-Sep-23 08:08 34.043799 -118.211375 82 7977ft 233kts
15-Sep-23 08:09 34.048058 -118.134370 114 5895ft 231kts
15-Sep-23 08:10 33.990416 -118.117935 210 4325ft 230kts
15-Sep-23 08:11 33.971870 -118.186044 265 3721ft 236kts
15-Sep-23 08:12 33.964475 -118.262314 263 2382ft 219kts
15-Sep-23 08:13 33.957833 -118.327815 262 1271ft 173kts
15-Sep-23 08:14 33.952321 -118.380841 264 487ft 146kts
15-Sep-23 08:15 33.948416 -118.419101 263 134ft 31kts
15-Sep-23 08:16 33.946878 -118.422092 90 134ft 16kts
15-Sep-23 08:17 33.947579 -118.414988 83 134ft 16kts
15-Sep-23 08:18 33.947382 -118.410237 82 134ft 22kts
15-Sep-23 08:19 33.947851 -118.402821 160 134ft 15kts
15-Sep-23 08:20 33.947040 -118.401917 92 134ft 0kts

Navigation Log

Ident Type
Flight plan parsing failed, navigation log unavailable